sensor_id;sensor_type;location;lat;lon;timestamp;P1;durP1;ratioP1;P2;durP2;ratioP2
49578;SDS011;35483;50.828;3.228;2022-09-03T00:02:06;14.45;;;11.65;;
49578;SDS011;35483;50.828;3.228;2022-09-03T00:07:14;12.68;;;11.40;;
49578;SDS011;35483;50.828;3.228;2022-09-03T00:09:46;12.85;;;11.55;;
49578;SDS011;35483;50.828;3.228;2022-09-03T00:12:21;13.05;;;11.73;;
49578;SDS011;35483;50.828;3.228;2022-09-03T00:14:54;14.55;;;12.73;;
49578;SDS011;35483;50.828;3.228;2022-09-03T00:17:21;13.18;;;11.77;;
49578;SDS011;35483;50.828;3.228;2022-09-03T00:19:55;12.77;;;11.55;;
49578;SDS011;35483;50.828;3.228;2022-09-03T00:22:29;13.60;;;12.02;;
49578;SDS011;35483;50.828;3.228;2022-09-03T00:25:03;13.77;;;12.25;;
49578;SDS011;35483;50.828;3.228;2022-09-03T00:27:38;13.53;;;12.17;;
49578;SDS011;35483;50.828;3.228;2022-09-03T00:30:10;13.13;;;11.82;;
49578;SDS011;35483;50.828;3.228;2022-09-03T00:32:44;12.80;;;11.38;;
49578;SDS011;35483;50.828;3.228;2022-09-03T00:36:03;12.68;;;11.30;;
49578;SDS011;35483;50.828;3.228;2022-09-03T00:38:17;13.00;;;11.65;;
49578;SDS011;35483;50.828;3.228;2022-09-03T00:40:51;13.18;;;10.90;;
49578;SDS011;35483;50.828;3.228;2022-09-03T00:46:21;14.07;;;12.68;;
49578;SDS011;35483;50.828;3.228;2022-09-03T00:49:05;13.57;;;12.18;;
49578;SDS011;35483;50.828;3.228;2022-09-03T01:07:58;13.75;;;12.27;;
49578;SDS011;35483;50.828;3.228;2022-09-03T01:13:20;15.15;;;12.98;;
49578;SDS011;35483;50.828;3.228;2022-09-03T01:29:10;15.82;;;13.40;;
49578;SDS011;35483;50.828;3.228;2022-09-03T01:37:36;15.20;;;13.20;;
49578;SDS011;35483;50.828;3.228;2022-09-03T01:40:22;17.27;;;13.50;;
49578;SDS011;35483;50.828;3.228;2022-09-03T01:43:09;16.27;;;14.48;;
49578;SDS011;35483;50.828;3.228;2022-09-03T01:48:42;15.27;;;13.65;;
49578;SDS011;35483;50.828;3.228;2022-09-03T01:53:54;15.07;;;13.43;;
49578;SDS011;35483;50.828;3.228;2022-09-03T01:59:43;14.77;;;13.27;;
49578;SDS011;35483;50.828;3.228;2022-09-03T02:02:27;15.25;;;13.65;;
49578;SDS011;35483;50.828;3.228;2022-09-03T02:07:34;14.82;;;13.20;;
49578;SDS011;35483;50.828;3.228;2022-09-03T02:10:15;24.95;;;14.60;;
49578;SDS011;35483;50.828;3.228;2022-09-03T02:12:45;14.90;;;13.27;;
49578;SDS011;35483;50.828;3.228;2022-09-03T02:15:17;14.43;;;12.93;;
49578;SDS011;35483;50.828;3.228;2022-09-03T02:17:46;15.82;;;13.98;;
49578;SDS011;35483;50.828;3.228;2022-09-03T02:20:21;15.93;;;14.32;;
49578;SDS011;35483;50.828;3.228;2022-09-03T02:22:48;15.90;;;14.23;;
49578;SDS011;35483;50.828;3.228;2022-09-03T02:25:15;16.83;;;13.00;;
49578;SDS011;35483;50.828;3.228;2022-09-03T02:27:41;16.20;;;14.07;;
49578;SDS011;35483;50.828;3.228;2022-09-03T02:30:08;15.60;;;13.45;;
49578;SDS011;35483;50.828;3.228;2022-09-03T02:32:34;15.98;;;13.75;;
49578;SDS011;35483;50.828;3.228;2022-09-03T02:35:00;15.07;;;13.45;;
49578;SDS011;35483;50.828;3.228;2022-09-03T02:37:26;16.50;;;13.88;;
49578;SDS011;35483;50.828;3.228;2022-09-03T02:39:51;16.98;;;13.98;;
49578;SDS011;35483;50.828;3.228;2022-09-03T02:42:18;16.67;;;14.27;;
49578;SDS011;35483;50.828;3.228;2022-09-03T02:44:47;14.27;;;12.77;;
49578;SDS011;35483;50.828;3.228;2022-09-03T02:47:21;14.98;;;13.40;;
49578;SDS011;35483;50.828;3.228;2022-09-03T02:49:49;15.50;;;13.52;;
49578;SDS011;35483;50.828;3.228;2022-09-03T02:52:16;17.35;;;14.25;;
49578;SDS011;35483;50.828;3.228;2022-09-03T02:54:42;16.10;;;13.82;;
49578;SDS011;35483;50.828;3.228;2022-09-03T02:57:11;14.65;;;12.98;;
49578;SDS011;35483;50.828;3.228;2022-09-03T02:59:38;15.82;;;13.95;;
49578;SDS011;35483;50.828;3.228;2022-09-03T03:02:05;16.52;;;14.23;;
49578;SDS011;35483;50.828;3.228;2022-09-03T03:04:31;16.52;;;14.60;;
49578;SDS011;35483;50.828;3.228;2022-09-03T03:06:58;14.45;;;12.85;;
49578;SDS011;35483;50.828;3.228;2022-09-03T03:09:23;14.70;;;13.13;;
49578;SDS011;35483;50.828;3.228;2022-09-03T03:11:49;14.50;;;13.00;;
49578;SDS011;35483;50.828;3.228;2022-09-03T03:14:16;15.70;;;13.80;;
49578;SDS011;35483;50.828;3.228;2022-09-03T03:16:43;17.02;;;14.20;;
49578;SDS011;35483;50.828;3.228;2022-09-03T03:19:09;16.35;;;14.20;;
49578;SDS011;35483;50.828;3.228;2022-09-03T03:21:35;16.50;;;13.95;;
49578;SDS011;35483;50.828;3.228;2022-09-03T03:24:01;16.55;;;14.23;;
49578;SDS011;35483;50.828;3.228;2022-09-03T03:26:27;16.60;;;14.80;;
49578;SDS011;35483;50.828;3.228;2022-09-03T03:28:57;16.45;;;14.65;;
49578;SDS011;35483;50.828;3.228;2022-09-03T03:31:24;16.17;;;14.55;;
49578;SDS011;35483;50.828;3.228;2022-09-03T03:33:52;17.88;;;14.80;;
49578;SDS011;35483;50.828;3.228;2022-09-03T03:36:20;15.20;;;13.60;;
49578;SDS011;35483;50.828;3.228;2022-09-03T03:38:47;19.77;;;15.75;;
49578;SDS011;35483;50.828;3.228;2022-09-03T03:41:14;16.52;;;14.80;;
49578;SDS011;35483;50.828;3.228;2022-09-03T03:43:42;18.67;;;15.43;;
49578;SDS011;35483;50.828;3.228;2022-09-03T03:46:08;16.63;;;14.85;;
49578;SDS011;35483;50.828;3.228;2022-09-03T03:48:35;19.90;;;16.10;;
49578;SDS011;35483;50.828;3.228;2022-09-03T03:51:02;19.10;;;14.93;;
49578;SDS011;35483;50.828;3.228;2022-09-03T03:53:31;18.17;;;15.45;;
49578;SDS011;35483;50.828;3.228;2022-09-03T03:55:59;17.42;;;14.98;;
49578;SDS011;35483;50.828;3.228;2022-09-03T03:58:27;17.80;;;15.07;;
49578;SDS011;35483;50.828;3.228;2022-09-03T04:01:02;16.80;;;14.40;;
49578;SDS011;35483;50.828;3.228;2022-09-03T04:03:33;18.33;;;15.27;;
49578;SDS011;35483;50.828;3.228;2022-09-03T04:05:59;17.08;;;13.75;;
49578;SDS011;35483;50.828;3.228;2022-09-03T04:08:26;17.50;;;14.30;;
49578;SDS011;35483;50.828;3.228;2022-09-03T04:10:53;21.17;;;16.17;;
49578;SDS011;35483;50.828;3.228;2022-09-03T04:13:22;17.00;;;14.90;;
49578;SDS011;35483;50.828;3.228;2022-09-03T04:15:48;22.05;;;16.00;;
49578;SDS011;35483;50.828;3.228;2022-09-03T04:18:15;18.83;;;15.48;;
49578;SDS011;35483;50.828;3.228;2022-09-03T04:20:41;18.25;;;15.20;;
49578;SDS011;35483;50.828;3.228;2022-09-03T04:23:06;17.65;;;15.05;;
49578;SDS011;35483;50.828;3.228;2022-09-03T04:25:32;19.42;;;15.48;;
49578;SDS011;35483;50.828;3.228;2022-09-03T04:27:58;20.02;;;15.30;;
49578;SDS011;35483;50.828;3.228;2022-09-03T04:30:24;20.52;;;16.58;;
49578;SDS011;35483;50.828;3.228;2022-09-03T04:32:51;20.95;;;15.57;;
49578;SDS011;35483;50.828;3.228;2022-09-03T04:35:17;18.70;;;16.45;;
49578;SDS011;35483;50.828;3.228;2022-09-03T04:37:45;18.52;;;15.65;;
49578;SDS011;35483;50.828;3.228;2022-09-03T04:40:11;20.65;;;16.27;;
49578;SDS011;35483;50.828;3.228;2022-09-03T04:42:36;19.63;;;16.63;;
49578;SDS011;35483;50.828;3.228;2022-09-03T04:45:02;18.85;;;16.40;;
49578;SDS011;35483;50.828;3.228;2022-09-03T04:47:28;19.30;;;16.98;;
49578;SDS011;35483;50.828;3.228;2022-09-03T04:49:54;19.10;;;16.15;;
49578;SDS011;35483;50.828;3.228;2022-09-03T04:52:20;21.58;;;16.33;;
49578;SDS011;35483;50.828;3.228;2022-09-03T04:54:46;20.13;;;15.80;;
49578;SDS011;35483;50.828;3.228;2022-09-03T04:57:11;19.42;;;16.35;;
49578;SDS011;35483;50.828;3.228;2022-09-03T04:59:37;20.85;;;17.85;;
49578;SDS011;35483;50.828;3.228;2022-09-03T05:02:05;19.60;;;16.77;;
49578;SDS011;35483;50.828;3.228;2022-09-03T05:04:31;20.58;;;17.55;;
49578;SDS011;35483;50.828;3.228;2022-09-03T05:06:57;22.45;;;16.90;;
49578;SDS011;35483;50.828;3.228;2022-09-03T05:09:22;21.38;;;17.63;;
49578;SDS011;35483;50.828;3.228;2022-09-03T05:11:48;19.83;;;16.80;;
49578;SDS011;35483;50.828;3.228;2022-09-03T05:14:14;20.98;;;16.80;;
49578;SDS011;35483;50.828;3.228;2022-09-03T05:16:39;20.52;;;16.35;;
49578;SDS011;35483;50.828;3.228;2022-09-03T05:19:05;20.75;;;16.10;;
49578;SDS011;35483;50.828;3.228;2022-09-03T05:21:32;22.08;;;17.05;;
49578;SDS011;35483;50.828;3.228;2022-09-03T05:24:00;21.45;;;17.23;;
49578;SDS011;35483;50.828;3.228;2022-09-03T05:26:29;20.42;;;16.58;;
49578;SDS011;35483;50.828;3.228;2022-09-03T05:28:57;21.88;;;17.45;;
49578;SDS011;35483;50.828;3.228;2022-09-03T05:31:24;20.60;;;16.17;;
49578;SDS011;35483;50.828;3.228;2022-09-03T05:33:55;19.15;;;16.50;;
49578;SDS011;35483;50.828;3.228;2022-09-03T05:36:23;21.02;;;16.88;;
49578;SDS011;35483;50.828;3.228;2022-09-03T05:38:51;22.17;;;17.40;;
49578;SDS011;35483;50.828;3.228;2022-09-03T05:41:20;20.00;;;17.05;;
49578;SDS011;35483;50.828;3.228;2022-09-03T05:43:49;19.90;;;17.10;;
49578;SDS011;35483;50.828;3.228;2022-09-03T05:46:20;24.35;;;17.33;;
49578;SDS011;35483;50.828;3.228;2022-09-03T05:48:50;22.52;;;17.40;;
49578;SDS011;35483;50.828;3.228;2022-09-03T05:51:16;25.13;;;16.85;;
49578;SDS011;35483;50.828;3.228;2022-09-03T05:53:43;22.27;;;16.98;;
49578;SDS011;35483;50.828;3.228;2022-09-03T05:56:13;19.08;;;16.23;;
49578;SDS011;35483;50.828;3.228;2022-09-03T05:58:42;22.17;;;16.92;;
49578;SDS011;35483;50.828;3.228;2022-09-03T06:01:13;19.02;;;16.58;;
49578;SDS011;35483;50.828;3.228;2022-09-03T06:03:45;21.55;;;16.92;;
49578;SDS011;35483;50.828;3.228;2022-09-03T06:06:17;18.70;;;15.98;;
49578;SDS011;35483;50.828;3.228;2022-09-03T06:08:42;21.15;;;15.73;;
49578;SDS011;35483;50.828;3.228;2022-09-03T06:11:09;18.10;;;16.20;;
49578;SDS011;35483;50.828;3.228;2022-09-03T06:13:35;18.58;;;15.85;;
49578;SDS011;35483;50.828;3.228;2022-09-03T06:16:02;18.08;;;15.07;;
49578;SDS011;35483;50.828;3.228;2022-09-03T06:18:30;17.63;;;15.38;;
49578;SDS011;35483;50.828;3.228;2022-09-03T06:20:58;20.08;;;16.05;;
49578;SDS011;35483;50.828;3.228;2022-09-03T06:23:25;19.00;;;15.73;;
49578;SDS011;35483;50.828;3.228;2022-09-03T06:26:09;19.98;;;15.50;;
49578;SDS011;35483;50.828;3.228;2022-09-03T06:28:40;16.23;;;13.63;;
49578;SDS011;35483;50.828;3.228;2022-09-03T06:31:11;17.58;;;14.88;;
49578;SDS011;35483;50.828;3.228;2022-09-03T06:33:38;18.48;;;14.95;;
49578;SDS011;35483;50.828;3.228;2022-09-03T06:36:07;17.17;;;15.10;;
49578;SDS011;35483;50.828;3.228;2022-09-03T06:38:37;19.20;;;15.85;;
49578;SDS011;35483;50.828;3.228;2022-09-03T06:41:05;18.15;;;14.98;;
49578;SDS011;35483;50.828;3.228;2022-09-03T06:43:34;16.65;;;14.70;;
49578;SDS011;35483;50.828;3.228;2022-09-03T06:46:02;16.58;;;14.20;;
49578;SDS011;35483;50.828;3.228;2022-09-03T06:48:31;18.33;;;14.98;;
49578;SDS011;35483;50.828;3.228;2022-09-03T06:50:59;16.67;;;13.77;;
49578;SDS011;35483;50.828;3.228;2022-09-03T06:53:31;18.17;;;14.02;;
49578;SDS011;35483;50.828;3.228;2022-09-03T06:56:00;17.00;;;13.15;;
49578;SDS011;35483;50.828;3.228;2022-09-03T06:58:29;15.55;;;13.05;;
49578;SDS011;35483;50.828;3.228;2022-09-03T07:01:02;15.55;;;13.07;;
49578;SDS011;35483;50.828;3.228;2022-09-03T07:03:33;17.85;;;13.32;;
49578;SDS011;35483;50.828;3.228;2022-09-03T07:06:06;15.93;;;12.80;;
49578;SDS011;35483;50.828;3.228;2022-09-03T07:08:33;14.40;;;11.65;;
49578;SDS011;35483;50.828;3.228;2022-09-03T07:11:00;13.85;;;12.45;;
49578;SDS011;35483;50.828;3.228;2022-09-03T07:13:31;14.25;;;11.70;;
49578;SDS011;35483;50.828;3.228;2022-09-03T07:16:01;13.45;;;12.05;;
49578;SDS011;35483;50.828;3.228;2022-09-03T07:18:29;15.88;;;11.73;;
49578;SDS011;35483;50.828;3.228;2022-09-03T07:23:49;14.05;;;12.55;;
49578;SDS011;35483;50.828;3.228;2022-09-03T07:26:20;14.82;;;12.30;;
49578;SDS011;35483;50.828;3.228;2022-09-03T07:28:47;16.42;;;11.80;;
49578;SDS011;35483;50.828;3.228;2022-09-03T07:31:17;16.05;;;12.43;;
49578;SDS011;35483;50.828;3.228;2022-09-03T07:33:45;12.85;;;10.98;;
49578;SDS011;35483;50.828;3.228;2022-09-03T07:36:12;14.98;;;11.55;;
49578;SDS011;35483;50.828;3.228;2022-09-03T07:38:40;15.65;;;11.65;;
49578;SDS011;35483;50.828;3.228;2022-09-03T07:41:09;13.27;;;11.40;;
49578;SDS011;35483;50.828;3.228;2022-09-03T07:43:37;15.98;;;11.48;;
49578;SDS011;35483;50.828;3.228;2022-09-03T07:46:05;14.05;;;12.00;;
49578;SDS011;35483;50.828;3.228;2022-09-03T07:48:32;13.63;;;11.90;;
49578;SDS011;35483;50.828;3.228;2022-09-03T07:50:58;12.30;;;10.50;;
49578;SDS011;35483;50.828;3.228;2022-09-03T07:53:27;15.75;;;12.32;;
49578;SDS011;35483;50.828;3.228;2022-09-03T07:55:59;12.52;;;11.32;;
49578;SDS011;35483;50.828;3.228;2022-09-03T07:58:30;12.38;;;10.90;;
49578;SDS011;35483;50.828;3.228;2022-09-03T08:00:56;11.88;;;10.48;;
49578;SDS011;35483;50.828;3.228;2022-09-03T08:03:23;14.75;;;11.02;;
49578;SDS011;35483;50.828;3.228;2022-09-03T08:05:49;13.98;;;11.52;;
49578;SDS011;35483;50.828;3.228;2022-09-03T08:08:15;12.50;;;11.30;;
49578;SDS011;35483;50.828;3.228;2022-09-03T08:10:42;12.00;;;10.80;;
49578;SDS011;35483;50.828;3.228;2022-09-03T08:13:08;13.35;;;11.10;;
49578;SDS011;35483;50.828;3.228;2022-09-03T08:15:35;13.75;;;10.80;;
49578;SDS011;35483;50.828;3.228;2022-09-03T08:18:02;12.15;;;10.88;;
49578;SDS011;35483;50.828;3.228;2022-09-03T08:20:28;12.38;;;11.07;;
49578;SDS011;35483;50.828;3.228;2022-09-03T08:23:00;13.65;;;11.23;;
49578;SDS011;35483;50.828;3.228;2022-09-03T08:25:27;12.40;;;10.43;;
49578;SDS011;35483;50.828;3.228;2022-09-03T08:27:56;11.80;;;10.35;;
49578;SDS011;35483;50.828;3.228;2022-09-03T08:30:23;10.70;;;9.70;;
49578;SDS011;35483;50.828;3.228;2022-09-03T08:32:49;10.57;;;9.23;;
49578;SDS011;35483;50.828;3.228;2022-09-03T08:35:15;10.38;;;9.27;;
49578;SDS011;35483;50.828;3.228;2022-09-03T08:37:40;10.43;;;9.25;;
49578;SDS011;35483;50.828;3.228;2022-09-03T08:40:06;11.40;;;9.55;;
49578;SDS011;35483;50.828;3.228;2022-09-03T08:42:44;10.45;;;9.45;;
49578;SDS011;35483;50.828;3.228;2022-09-03T08:45:31;11.02;;;9.93;;
49578;SDS011;35483;50.828;3.228;2022-09-03T08:48:09;10.35;;;9.27;;
49578;SDS011;35483;50.828;3.228;2022-09-03T08:50:39;10.73;;;9.63;;
49578;SDS011;35483;50.828;3.228;2022-09-03T08:55:55;11.27;;;9.70;;
49578;SDS011;35483;50.828;3.228;2022-09-03T08:58:28;10.75;;;9.52;;
49578;SDS011;35483;50.828;3.228;2022-09-03T09:00:59;9.73;;;8.68;;
49578;SDS011;35483;50.828;3.228;2022-09-03T09:11:46;10.45;;;9.15;;
49578;SDS011;35483;50.828;3.228;2022-09-03T09:14:19;10.25;;;9.20;;
49578;SDS011;35483;50.828;3.228;2022-09-03T09:16:52;10.93;;;9.82;;
49578;SDS011;35483;50.828;3.228;2022-09-03T09:22:10;10.35;;;9.15;;
49578;SDS011;35483;50.828;3.228;2022-09-03T09:24:45;11.82;;;8.88;;
49578;SDS011;35483;50.828;3.228;2022-09-03T09:27:13;10.50;;;9.50;;
49578;SDS011;35483;50.828;3.228;2022-09-03T09:29:41;12.60;;;9.75;;
49578;SDS011;35483;50.828;3.228;2022-09-03T09:32:10;10.77;;;9.68;;
49578;SDS011;35483;50.828;3.228;2022-09-03T09:34:38;10.68;;;9.65;;
49578;SDS011;35483;50.828;3.228;2022-09-03T09:37:07;10.63;;;9.52;;
49578;SDS011;35483;50.828;3.228;2022-09-03T09:39:35;13.55;;;11.73;;
49578;SDS011;35483;50.828;3.228;2022-09-03T09:42:10;13.00;;;9.75;;
49578;SDS011;35483;50.828;3.228;2022-09-03T09:44:37;11.75;;;9.70;;
49578;SDS011;35483;50.828;3.228;2022-09-03T09:47:25;11.30;;;9.57;;
49578;SDS011;35483;50.828;3.228;2022-09-03T09:49:53;10.98;;;9.10;;
49578;SDS011;35483;50.828;3.228;2022-09-03T09:52:23;11.23;;;8.85;;
49578;SDS011;35483;50.828;3.228;2022-09-03T09:54:52;12.13;;;10.32;;
49578;SDS011;35483;50.828;3.228;2022-09-03T09:57:31;10.38;;;9.25;;
49578;SDS011;35483;50.828;3.228;2022-09-03T10:00:09;10.70;;;9.60;;
49578;SDS011;35483;50.828;3.228;2022-09-03T10:02:38;13.30;;;9.85;;
49578;SDS011;35483;50.828;3.228;2022-09-03T10:07:55;13.82;;;11.40;;
49578;SDS011;35483;50.828;3.228;2022-09-03T10:10:23;12.63;;;11.30;;
49578;SDS011;35483;50.828;3.228;2022-09-03T10:18:16;13.95;;;11.48;;
49578;SDS011;35483;50.828;3.228;2022-09-03T10:21:07;13.02;;;11.73;;
49578;SDS011;35483;50.828;3.228;2022-09-03T10:26:53;13.07;;;10.48;;
49578;SDS011;35483;50.828;3.228;2022-09-03T10:29:20;12.63;;;10.77;;
49578;SDS011;35483;50.828;3.228;2022-09-03T10:45:12;12.68;;;11.48;;
49578;SDS011;35483;50.828;3.228;2022-09-03T10:50:51;14.73;;;12.77;;
49578;SDS011;35483;50.828;3.228;2022-09-03T10:53:42;14.95;;;13.55;;
49578;SDS011;35483;50.828;3.228;2022-09-03T11:07:16;19.02;;;14.02;;
49578;SDS011;35483;50.828;3.228;2022-09-03T11:09:52;14.00;;;12.50;;
49578;SDS011;35483;50.828;3.228;2022-09-03T11:15:15;18.30;;;12.77;;
49578;SDS011;35483;50.828;3.228;2022-09-03T11:17:45;14.60;;;13.10;;
49578;SDS011;35483;50.828;3.228;2022-09-03T11:20:18;13.95;;;12.55;;
49578;SDS011;35483;50.828;3.228;2022-09-03T11:22:46;13.77;;;12.38;;
49578;SDS011;35483;50.828;3.228;2022-09-03T11:25:16;13.30;;;11.93;;
49578;SDS011;35483;50.828;3.228;2022-09-03T11:27:51;12.98;;;11.07;;
49578;SDS011;35483;50.828;3.228;2022-09-03T11:34:11;11.43;;;10.40;;
49578;SDS011;35483;50.828;3.228;2022-09-03T11:36:39;12.63;;;11.43;;
49578;SDS011;35483;50.828;3.228;2022-09-03T11:39:12;10.65;;;9.65;;
49578;SDS011;35483;50.828;3.228;2022-09-03T11:41:42;11.48;;;10.40;;
49578;SDS011;35483;50.828;3.228;2022-09-03T11:44:18;11.70;;;9.43;;
49578;SDS011;35483;50.828;3.228;2022-09-03T11:46:57;10.18;;;9.18;;
49578;SDS011;35483;50.828;3.228;2022-09-03T11:49:27;10.63;;;9.63;;
49578;SDS011;35483;50.828;3.228;2022-09-03T11:51:59;9.00;;;7.53;;
49578;SDS011;35483;50.828;3.228;2022-09-03T11:54:26;8.05;;;7.25;;
49578;SDS011;35483;50.828;3.228;2022-09-03T11:57:02;9.18;;;8.30;;
49578;SDS011;35483;50.828;3.228;2022-09-03T11:59:34;9.77;;;8.75;;
49578;SDS011;35483;50.828;3.228;2022-09-03T12:02:02;8.05;;;7.25;;
49578;SDS011;35483;50.828;3.228;2022-09-03T12:04:45;8.02;;;7.22;;
49578;SDS011;35483;50.828;3.228;2022-09-03T12:13:04;7.57;;;6.70;;
49578;SDS011;35483;50.828;3.228;2022-09-03T12:18:32;6.75;;;5.97;;
49578;SDS011;35483;50.828;3.228;2022-09-03T12:21:02;6.80;;;6.10;;
49578;SDS011;35483;50.828;3.228;2022-09-03T12:23:43;7.35;;;6.65;;
49578;SDS011;35483;50.828;3.228;2022-09-03T12:26:17;16.52;;;7.55;;
49578;SDS011;35483;50.828;3.228;2022-09-03T12:28:46;14.48;;;7.93;;
49578;SDS011;35483;50.828;3.228;2022-09-03T12:31:22;6.72;;;6.00;;
49578;SDS011;35483;50.828;3.228;2022-09-03T12:36:41;8.30;;;5.47;;
49578;SDS011;35483;50.828;3.228;2022-09-03T12:39:09;5.95;;;5.35;;
49578;SDS011;35483;50.828;3.228;2022-09-03T12:44:30;6.00;;;5.15;;
49578;SDS011;35483;50.828;3.228;2022-09-03T12:47:13;6.18;;;5.32;;
49578;SDS011;35483;50.828;3.228;2022-09-03T12:49:43;5.03;;;4.53;;
49578;SDS011;35483;50.828;3.228;2022-09-03T12:52:27;4.50;;;4.10;;
49578;SDS011;35483;50.828;3.228;2022-09-03T12:57:37;10.07;;;5.30;;
49578;SDS011;35483;50.828;3.228;2022-09-03T13:00:08;6.18;;;4.50;;
49578;SDS011;35483;50.828;3.228;2022-09-03T13:05:09;4.90;;;4.22;;
49578;SDS011;35483;50.828;3.228;2022-09-03T13:07:42;6.13;;;4.72;;
49578;SDS011;35483;50.828;3.228;2022-09-03T13:10:22;7.28;;;5.07;;
49578;SDS011;35483;50.828;3.228;2022-09-03T13:13:01;7.15;;;3.90;;
49578;SDS011;35483;50.828;3.228;2022-09-03T13:15:40;4.65;;;4.20;;
49578;SDS011;35483;50.828;3.228;2022-09-03T13:20:47;4.45;;;4.13;;
49578;SDS011;35483;50.828;3.228;2022-09-03T13:31:35;4.70;;;4.10;;
49578;SDS011;35483;50.828;3.228;2022-09-03T13:34:08;4.60;;;4.20;;
49578;SDS011;35483;50.828;3.228;2022-09-03T13:36:49;4.40;;;4.00;;
49578;SDS011;35483;50.828;3.228;2022-09-03T13:39:31;4.78;;;4.38;;
49578;SDS011;35483;50.828;3.228;2022-09-03T13:44:51;5.78;;;5.25;;
49578;SDS011;35483;50.828;3.228;2022-09-03T13:50:50;6.50;;;5.78;;
49578;SDS011;35483;50.828;3.228;2022-09-03T13:53:35;5.82;;;5.15;;
49578;SDS011;35483;50.828;3.228;2022-09-03T13:56:12;5.50;;;5.00;;
49578;SDS011;35483;50.828;3.228;2022-09-03T13:58:59;5.53;;;5.03;;
49578;SDS011;35483;50.828;3.228;2022-09-03T14:01:59;5.75;;;5.25;;
49578;SDS011;35483;50.828;3.228;2022-09-03T14:07:26;5.75;;;5.25;;
49578;SDS011;35483;50.828;3.228;2022-09-03T14:10:04;5.07;;;4.57;;
49578;SDS011;35483;50.828;3.228;2022-09-03T14:15:34;7.65;;;4.43;;
49578;SDS011;35483;50.828;3.228;2022-09-03T14:18:39;5.40;;;4.90;;
49578;SDS011;35483;50.828;3.228;2022-09-03T14:21:17;5.47;;;4.93;;
49578;SDS011;35483;50.828;3.228;2022-09-03T14:26:33;4.78;;;4.13;;
49578;SDS011;35483;50.828;3.228;2022-09-03T14:29:02;5.47;;;4.97;;
49578;SDS011;35483;50.828;3.228;2022-09-03T14:40:18;2.90;;;2.60;;
49578;SDS011;35483;50.828;3.228;2022-09-03T14:51:08;4.13;;;3.70;;
49578;SDS011;35483;50.828;3.228;2022-09-03T14:54:39;4.57;;;4.18;;
49578;SDS011;35483;50.828;3.228;2022-09-03T14:57:06;4.70;;;4.25;;
49578;SDS011;35483;50.828;3.228;2022-09-03T15:00:05;4.53;;;4.13;;
49578;SDS011;35483;50.828;3.228;2022-09-03T15:03:19;6.38;;;4.95;;
49578;SDS011;35483;50.828;3.228;2022-09-03T15:08:46;4.50;;;4.13;;
49578;SDS011;35483;50.828;3.228;2022-09-03T15:11:29;3.60;;;3.30;;
49578;SDS011;35483;50.828;3.228;2022-09-03T15:16:32;3.03;;;2.83;;
49578;SDS011;35483;50.828;3.228;2022-09-03T15:24:52;3.50;;;3.00;;
49578;SDS011;35483;50.828;3.228;2022-09-03T15:30:20;4.00;;;3.60;;
49578;SDS011;35483;50.828;3.228;2022-09-03T15:40:55;5.15;;;3.67;;
49578;SDS011;35483;50.828;3.228;2022-09-03T15:43:29;4.35;;;3.92;;
49578;SDS011;35483;50.828;3.228;2022-09-03T15:48:49;4.22;;;3.92;;
49578;SDS011;35483;50.828;3.228;2022-09-03T15:51:39;4.47;;;4.10;;
49578;SDS011;35483;50.828;3.228;2022-09-03T15:57:06;5.38;;;4.50;;
49578;SDS011;35483;50.828;3.228;2022-09-03T15:59:40;6.57;;;4.53;;
49578;SDS011;35483;50.828;3.228;2022-09-03T16:04:58;6.03;;;3.55;;
49578;SDS011;35483;50.828;3.228;2022-09-03T16:08:01;3.92;;;3.60;;
49578;SDS011;35483;50.828;3.228;2022-09-03T16:10:57;4.90;;;4.18;;
49578;SDS011;35483;50.828;3.228;2022-09-03T16:13:28;3.92;;;3.63;;
49578;SDS011;35483;50.828;3.228;2022-09-03T16:16:58;4.13;;;3.72;;
49578;SDS011;35483;50.828;3.228;2022-09-03T16:19:12;4.63;;;3.70;;
49578;SDS011;35483;50.828;3.228;2022-09-03T16:25:08;3.60;;;3.30;;
49578;SDS011;35483;50.828;3.228;2022-09-03T16:27:51;4.43;;;3.70;;
49578;SDS011;35483;50.828;3.228;2022-09-03T16:30:51;3.67;;;3.33;;
49578;SDS011;35483;50.828;3.228;2022-09-03T16:38:50;4.78;;;3.88;;
49578;SDS011;35483;50.828;3.228;2022-09-03T16:58:01;4.03;;;3.72;;
49578;SDS011;35483;50.828;3.228;2022-09-03T17:03:38;3.75;;;3.30;;
49578;SDS011;35483;50.828;3.228;2022-09-03T17:09:27;3.95;;;3.33;;
49578;SDS011;35483;50.828;3.228;2022-09-03T17:23:47;3.45;;;3.15;;
49578;SDS011;35483;50.828;3.228;2022-09-03T17:29:36;3.72;;;3.42;;
49578;SDS011;35483;50.828;3.228;2022-09-03T17:37:51;9.45;;;7.78;;
49578;SDS011;35483;50.828;3.228;2022-09-03T17:43:38;13.38;;;8.68;;
49578;SDS011;35483;50.828;3.228;2022-09-03T17:49:01;8.98;;;8.15;;
49578;SDS011;35483;50.828;3.228;2022-09-03T17:51:38;8.40;;;7.47;;
49578;SDS011;35483;50.828;3.228;2022-09-03T17:57:23;7.60;;;6.90;;
49578;SDS011;35483;50.828;3.228;2022-09-03T18:02:36;6.88;;;6.05;;
49578;SDS011;35483;50.828;3.228;2022-09-03T18:05:26;6.93;;;6.15;;
49578;SDS011;35483;50.828;3.228;2022-09-03T18:16:34;7.40;;;6.10;;
49578;SDS011;35483;50.828;3.228;2022-09-03T18:21:53;6.93;;;6.22;;
49578;SDS011;35483;50.828;3.228;2022-09-03T18:24:47;7.32;;;6.57;;
49578;SDS011;35483;50.828;3.228;2022-09-03T18:27:44;6.85;;;6.13;;
49578;SDS011;35483;50.828;3.228;2022-09-03T18:30:32;7.85;;;6.50;;
49578;SDS011;35483;50.828;3.228;2022-09-03T18:33:18;7.50;;;6.80;;
49578;SDS011;35483;50.828;3.228;2022-09-03T18:36:06;7.53;;;6.82;;
49578;SDS011;35483;50.828;3.228;2022-09-03T18:44:53;9.73;;;8.73;;
49578;SDS011;35483;50.828;3.228;2022-09-03T18:50:47;9.88;;;8.85;;
49578;SDS011;35483;50.828;3.228;2022-09-03T19:08:27;12.85;;;11.55;;
49578;SDS011;35483;50.828;3.228;2022-09-03T19:20:32;12.85;;;11.65;;
49578;SDS011;35483;50.828;3.228;2022-09-03T19:23:19;12.90;;;11.57;;
49578;SDS011;35483;50.828;3.228;2022-09-03T19:26:06;16.58;;;11.93;;
49578;SDS011;35483;50.828;3.228;2022-09-03T19:29:00;14.05;;;12.55;;
49578;SDS011;35483;50.828;3.228;2022-09-03T19:31:59;12.30;;;10.98;;
49578;SDS011;35483;50.828;3.228;2022-09-03T19:41:16;12.20;;;10.98;;
49578;SDS011;35483;50.828;3.228;2022-09-03T19:47:20;13.05;;;11.75;;
49578;SDS011;35483;50.828;3.228;2022-09-03T19:50:23;13.55;;;12.07;;
49578;SDS011;35483;50.828;3.228;2022-09-03T19:53:13;13.75;;;12.32;;
49578;SDS011;35483;50.828;3.228;2022-09-03T19:56:08;15.07;;;13.52;;
49578;SDS011;35483;50.828;3.228;2022-09-03T19:59:16;14.93;;;13.35;;
49578;SDS011;35483;50.828;3.228;2022-09-03T20:02:02;15.55;;;13.95;;
49578;SDS011;35483;50.828;3.228;2022-09-03T20:04:50;15.65;;;13.90;;
49578;SDS011;35483;50.828;3.228;2022-09-03T20:10:27;19.48;;;17.48;;
49578;SDS011;35483;50.828;3.228;2022-09-03T20:13:04;20.65;;;17.95;;
49578;SDS011;35483;50.828;3.228;2022-09-03T20:18:29;23.87;;;21.07;;
49578;SDS011;35483;50.828;3.228;2022-09-03T20:21:20;23.35;;;19.92;;
49578;SDS011;35483;50.828;3.228;2022-09-03T20:32:38;33.45;;;28.73;;
49578;SDS011;35483;50.828;3.228;2022-09-03T20:46:39;40.42;;;33.25;;
49578;SDS011;35483;50.828;3.228;2022-09-03T20:52:27;43.35;;;35.08;;
49578;SDS011;35483;50.828;3.228;2022-09-03T20:57:19;43.28;;;35.15;;
49578;SDS011;35483;50.828;3.228;2022-09-03T21:15:47;50.60;;;37.95;;
49578;SDS011;35483;50.828;3.228;2022-09-03T21:21:20;47.60;;;37.83;;
49578;SDS011;35483;50.828;3.228;2022-09-03T21:24:25;49.05;;;37.78;;